Time;durP1;ratioP1;P1;durP2;ratioP2;P2;SDS_P1;SDS_P2;PMS_P1;PMS_P2;Temp;Humidity;BMP_temperature;BMP_pressure;BME280_temperature;BME280_humidity;BME280_pressure;Samples;Min_cycle;Max_cycle;Signal;HPM_P1;HPM_P2
2022/06/14 00:00:53;;;;;;;0.60;0.40;;;11.50;99.90;;;;;;5122659;27;20031;-72
2022/06/14 00:02:22;;;;;;;0.80;0.40;;;11.50;99.90;;;;;;5118605;27;20118;-72
2022/06/14 00:04:48;;;;;;;1.10;0.60;;;11.50;99.90;;;;;;5120328;27;20114;-72
2022/06/14 00:07:13;;;;;;;1.42;0.60;;;11.50;99.90;;;;;;5102003;27;20039;-72
2022/06/14 00:09:39;;;;;;;1.08;0.50;;;11.50;99.90;;;;;;5119366;27;20559;-73
2022/06/14 00:12:05;;;;;;;0.50;0.32;;;11.40;99.90;;;;;;5102377;28;20100;-73
2022/06/14 00:14:31;;;;;;;3.08;0.45;;;11.40;99.90;;;;;;5116240;27;20047;-73
2022/06/14 00:16:56;;;;;;;1.02;0.50;;;11.40;99.90;;;;;;5094583;28;20046;-72
2022/06/14 00:19:22;;;;;;;1.13;0.50;;;11.40;99.90;;;;;;5106528;27;20520;-73
2022/06/14 00:21:48;;;;;;;1.42;0.45;;;11.30;99.90;;;;;;5116346;27;20221;-72
2022/06/14 00:24:13;;;;;;;1.77;0.75;;;11.30;99.90;;;;;;5108695;27;20544;-73
2022/06/14 00:26:39;;;;;;;1.23;0.60;;;11.40;99.90;;;;;;5113692;27;20327;-73
2022/06/14 00:29:04;;;;;;;3.13;0.70;;;11.30;99.90;;;;;;5113149;27;20095;-73
2022/06/14 00:31:30;;;;;;;1.48;0.60;;;11.30;99.90;;;;;;5114336;27;20038;-73
2022/06/14 00:33:56;;;;;;;1.55;0.45;;;11.20;99.90;;;;;;5109547;27;20047;-73
2022/06/14 00:36:28;;;;;;;1.27;0.85;;;11.20;99.90;;;;;;5117282;27;20067;-72
2022/06/14 00:38:54;;;;;;;2.05;0.50;;;11.20;99.90;;;;;;5112172;27;20178;-72
2022/06/14 00:41:44;;;;;;;1.25;0.57;;;11.20;99.90;;;;;;5101556;27;20047;-72
2022/06/14 00:44:23;;;;;;;2.15;0.80;;;11.20;99.90;;;;;;5101847;27;20088;-72
2022/06/14 00:47:11;;;;;;;0.30;0.20;;;11.20;99.90;;;;;;5111290;27;20115;-72
2022/06/14 00:49:46;;;;;;;1.85;0.50;;;11.10;99.90;;;;;;5110887;27;20035;-72
2022/06/14 00:52:33;;;;;;;0.85;0.40;;;11.10;99.90;;;;;;5110573;27;20560;-73
2022/06/14 00:55:06;;;;;;;1.20;0.57;;;11.00;99.90;;;;;;5112013;27;20089;-73
2022/06/14 00:57:38;;;;;;;0.57;0.45;;;11.00;99.90;;;;;;5106768;27;20110;-73
2022/06/14 01:00:15;;;;;;;0.82;0.40;;;10.90;99.90;;;;;;5107259;27;20036;-72
2022/06/14 01:02:49;;;;;;;2.05;0.65;;;10.80;99.90;;;;;;5116560;27;20042;-72
2022/06/14 01:05:25;;;;;;;4.10;0.50;;;10.80;99.90;;;;;;5114158;27;20525;-73
2022/06/14 01:07:55;;;;;;;1.15;0.47;;;10.70;99.90;;;;;;5098656;27;20031;-72
2022/06/14 01:10:26;;;;;;;1.20;0.60;;;10.80;99.90;;;;;;5103087;27;20213;-72
2022/06/14 01:12:55;;;;;;;1.45;0.65;;;10.80;99.90;;;;;;5095905;28;20095;-72
2022/06/14 01:15:25;;;;;;;2.45;0.50;;;10.70;99.90;;;;;;5100302;27;20636;-72
2022/06/14 01:17:57;;;;;;;2.00;0.55;;;10.70;99.90;;;;;;5105849;27;20099;-72
2022/06/14 01:20:24;;;;;;;1.40;0.80;;;10.80;99.90;;;;;;5113322;27;20047;-72
2022/06/14 01:22:50;;;;;;;0.70;0.50;;;10.80;99.90;;;;;;5112290;27;20508;-72
2022/06/14 01:25:16;;;;;;;7.38;0.88;;;10.70;99.90;;;;;;5107866;27;20092;-72
2022/06/14 01:27:43;;;;;;;1.05;0.50;;;10.70;99.90;;;;;;5117525;27;20414;-72
2022/06/14 01:30:27;;;;;;;0.80;0.52;;;10.70;99.90;;;;;;5097949;27;20043;-72
2022/06/14 01:33:06;;;;;;;1.92;0.73;;;10.60;99.90;;;;;;5113368;27;20059;-73
2022/06/14 01:35:35;;;;;;;1.08;0.52;;;10.60;99.90;;;;;;5113065;27;20035;-73
2022/06/14 01:38:05;;;;;;;0.88;0.43;;;10.60;99.90;;;;;;5107568;27;20574;-73
2022/06/14 01:40:43;;;;;;;0.47;0.30;;;10.60;99.90;;;;;;5107251;27;20047;-72
2022/06/14 01:43:30;;;;;;;3.08;0.45;;;10.50;99.90;;;;;;5099414;27;20039;-72
2022/06/14 01:46:27;;;;;;;0.55;0.50;;;10.50;99.90;;;;;;5105698;27;20032;-72
2022/06/14 01:51:50;;;;;;;;;;;10.50;99.90;;;;;;5112728;27;20494;-72
2022/06/14 01:52:02;;;;;;;1.33;0.47;;;10.50;99.90;;;;;;5114704;27;19916;-72
2022/06/14 01:54:41;;;;;;;0.70;0.40;;;10.50;99.90;;;;;;5110036;27;20040;-72
2022/06/14 01:57:13;;;;;;;0.85;0.60;;;10.50;99.90;;;;;;5107051;27;20034;-73
2022/06/14 01:59:53;;;;;;;1.08;0.57;;;10.40;99.90;;;;;;5098304;27;20951;-72
2022/06/14 02:02:45;;;;;;;0.75;0.40;;;10.50;99.90;;;;;;5094919;27;20390;-73
2022/06/14 02:05:16;;;;;;;0.32;0.25;;;10.40;99.90;;;;;;5108533;27;20492;-72
2022/06/14 02:07:46;;;;;;;3.83;0.70;;;10.30;99.90;;;;;;5094531;27;20084;-72
2022/06/14 02:10:33;;;;;;;1.38;0.50;;;10.30;99.90;;;;;;5113225;27;20036;-72
2022/06/14 02:13:19;;;;;;;1.17;0.50;;;10.30;99.90;;;;;;5112431;27;20107;-73
2022/06/14 02:15:50;;;;;;;;;;;10.30;99.90;;;;;;5108855;27;20516;-72
2022/06/14 02:18:33;;;;;;;1.30;0.70;;;10.30;99.90;;;;;;5101946;27;19923;-72
2022/06/14 02:21:05;;;;;;;0.85;0.40;;;10.30;99.90;;;;;;5098137;27;20031;-72
2022/06/14 02:23:37;;;;;;;0.40;0.40;;;10.30;99.90;;;;;;5114387;27;20504;-72
2022/06/14 02:26:26;;;;;;;0.43;0.40;;;10.30;99.90;;;;;;5110217;27;20106;-72
2022/06/14 02:29:21;;;;;;;1.80;0.40;;;10.30;99.90;;;;;;5110615;27;20170;-72
2022/06/14 02:31:56;;;;;;;2.80;0.63;;;10.30;99.90;;;;;;5107343;27;20040;-72
2022/06/14 02:34:37;;;;;;;0.55;0.40;;;10.30;99.90;;;;;;5093806;27;20078;-72
2022/06/14 02:37:11;;;;;;;1.58;0.60;;;10.20;99.90;;;;;;5110606;27;20035;-72
2022/06/14 02:39:41;;;;;;;0.68;0.50;;;10.20;99.90;;;;;;5116426;27;20039;-72
2022/06/14 02:42:29;;;;;;;0.75;0.30;;;10.20;99.90;;;;;;5110337;27;20043;-72
2022/06/14 02:45:20;;;;;;;0.65;0.45;;;10.20;99.90;;;;;;5110613;27;20035;-72
2022/06/14 02:47:54;;;;;;;0.88;0.45;;;10.20;99.90;;;;;;5101352;27;20097;-72
2022/06/14 02:50:23;;;;;;;1.65;0.40;;;10.20;99.90;;;;;;5102247;27;20050;-72
2022/06/14 02:53:16;;;;;;;0.73;0.45;;;10.20;99.90;;;;;;5113933;27;20509;-73
2022/06/14 02:56:03;;;;;;;1.48;0.50;;;10.20;99.90;;;;;;5097151;27;20039;-72
2022/06/14 02:58:47;;;;;;;1.20;0.47;;;10.20;99.90;;;;;;5110572;27;20134;-72
2022/06/14 03:01:26;;;;;;;1.08;0.50;;;10.20;99.90;;;;;;5088132;27;20031;-72
2022/06/14 03:04:00;;;;;;;1.77;0.65;;;10.20;99.90;;;;;;5106468;27;20032;-72
2022/06/14 03:07:04;;;;;;;2.20;0.60;;;10.20;99.90;;;;;;5111440;27;20078;-72
2022/06/14 03:09:31;;;;;;;1.33;0.60;;;10.10;99.90;;;;;;5051000;28;20055;-72
2022/06/14 03:12:09;;;;;;;2.17;1.17;;;10.10;99.90;;;;;;5107558;27;20046;-72
2022/06/14 03:15:05;;;;;;;2.83;1.05;;;10.10;99.90;;;;;;5099583;27;20038;-72
2022/06/14 03:17:46;;;;;;;4.68;0.70;;;10.10;99.90;;;;;;5107294;27;20151;-72
2022/06/14 03:20:44;;;;;;;3.90;1.25;;;10.10;99.90;;;;;;5113194;27;20135;-72
2022/06/14 03:23:37;;;;;;;0.65;0.55;;;10.10;99.90;;;;;;5106669;28;20123;-72
2022/06/14 03:26:35;;;;;;;3.28;0.80;;;10.20;99.90;;;;;;5102026;28;20058;-72
2022/06/14 03:29:22;;;;;;;1.98;0.95;;;10.20;99.90;;;;;;5104675;27;20048;-72
2022/06/14 03:32:02;;;;;;;1.17;0.50;;;10.20;99.90;;;;;;5110134;28;20439;-72
2022/06/14 03:34:43;;;;;;;2.00;1.02;;;10.20;99.90;;;;;;5093947;28;20151;-72
2022/06/14 03:37:11;;;;;;;0.85;0.68;;;10.30;99.90;;;;;;5115989;28;20149;-72
2022/06/14 03:39:41;;;;;;;3.13;1.00;;;10.20;99.90;;;;;;5098131;28;20035;-72
2022/06/14 03:42:08;;;;;;;4.82;1.20;;;10.30;99.90;;;;;;5113371;27;20045;-72
2022/06/14 03:44:34;;;;;;;4.40;0.98;;;10.30;99.90;;;;;;5112817;28;20047;-72
2022/06/14 03:47:09;;;;;;;2.08;1.02;;;10.30;99.90;;;;;;5102126;28;20035;-72
2022/06/14 03:49:40;;;;;;;1.70;0.88;;;10.30;99.90;;;;;;5109839;28;20085;-72
2022/06/14 03:52:46;;;;;;;1.17;0.63;;;10.40;99.90;;;;;;5106395;27;20583;-72
2022/06/14 03:55:41;;;;;;;2.13;1.17;;;10.40;99.90;;;;;;5094357;28;20090;-72
2022/06/14 03:58:38;;;;;;;3.92;0.88;;;10.50;99.90;;;;;;5102499;27;20612;-72
2022/06/14 04:01:18;;;;;;;1.45;0.80;;;10.50;99.90;;;;;;5107295;28;20039;-72
2022/06/14 04:03:55;;;;;;;1.90;0.73;;;10.50;99.90;;;;;;5110417;28;20100;-72
2022/06/14 04:06:48;;;;;;;1.55;0.93;;;10.50;99.90;;;;;;5102667;28;20039;-72
2022/06/14 04:09:44;;;;;;;1.50;0.70;;;10.50;99.90;;;;;;5107567;27;20043;-72
2022/06/14 04:12:39;;;;;;;1.27;0.73;;;10.50;99.90;;;;;;5110368;28;20093;-72
2022/06/14 04:15:27;;;;;;;1.48;0.80;;;10.50;99.90;;;;;;5106381;28;20038;-72
2022/06/14 04:18:34;;;;;;;3.45;1.23;;;10.50;99.90;;;;;;5108301;28;20091;-72
2022/06/14 04:20:54;;;;;;;1.65;0.98;;;10.60;99.90;;;;;;5108160;28;20142;-72
2022/06/14 04:23:45;;;;;;;3.42;1.13;;;10.60;99.90;;;;;;5107845;28;20484;-72
2022/06/14 04:26:19;;;;;;;1.92;0.88;;;10.60;99.90;;;;;;5108988;27;20069;-72
2022/06/14 04:29:00;;;;;;;1.90;0.75;;;10.60;99.90;;;;;;5110560;28;20039;-72
2022/06/14 04:31:29;;;;;;;5.30;0.95;;;10.60;99.90;;;;;;5111518;28;20046;-72
2022/06/14 04:34:21;;;;;;;1.38;1.02;;;10.60;99.90;;;;;;5116097;27;20118;-72
2022/06/14 04:36:57;;;;;;;2.10;0.93;;;10.70;99.90;;;;;;5099735;28;20044;-72
2022/06/14 04:39:39;;;;;;;4.82;1.17;;;10.70;99.90;;;;;;5112606;27;20137;-72
2022/06/14 04:42:12;;;;;;;2.20;1.10;;;10.80;99.90;;;;;;5115369;27;20103;-72
2022/06/14 04:44:53;;;;;;;3.40;0.90;;;10.80;99.90;;;;;;5115363;27;20047;-72
2022/06/14 04:47:22;;;;;;;3.63;0.82;;;10.90;99.90;;;;;;5103438;27;20028;-72
2022/06/14 04:50:01;;;;;;;2.05;1.00;;;10.90;99.90;;;;;;5114622;27;20042;-72
2022/06/14 04:52:36;;;;;;;2.08;1.00;;;11.00;99.90;;;;;;5111683;27;20034;-72
2022/06/14 04:55:09;;;;;;;1.95;0.95;;;11.00;99.90;;;;;;5114617;27;20062;-72
2022/06/14 04:57:43;;;;;;;2.22;1.15;;;11.00;99.90;;;;;;5102877;27;20038;-72
2022/06/14 05:00:27;;;;;;;2.92;0.95;;;11.00;99.90;;;;;;5124806;27;20042;-72
2022/06/14 05:03:08;;;;;;;3.25;1.00;;;11.10;99.90;;;;;;5118943;27;20465;-72
2022/06/14 05:05:40;;;;;;;5.45;1.27;;;11.10;99.90;;;;;;5114591;27;20039;-72
2022/06/14 05:08:25;;;;;;;0.98;0.70;;;11.10;99.90;;;;;;5121474;27;20031;-72
2022/06/14 05:10:54;;;;;;;1.33;0.82;;;11.10;99.90;;;;;;5118430;27;20121;-72
2022/06/14 05:13:32;;;;;;;3.83;1.13;;;11.20;99.90;;;;;;5110603;27;20802;-72
2022/06/14 05:16:12;;;;;;;1.60;0.90;;;11.20;99.90;;;;;;5091656;27;20469;-72
2022/06/14 05:18:48;;;;;;;1.50;0.80;;;11.20;99.90;;;;;;5106602;27;20048;-72
2022/06/14 05:21:33;;;;;;;2.20;1.10;;;11.20;99.90;;;;;;5114464;27;20122;-72
2022/06/14 05:24:00;;;;;;;3.00;1.05;;;11.20;99.90;;;;;;5093294;27;20043;-72
2022/06/14 05:26:52;;;;;;;2.10;0.80;;;11.30;99.90;;;;;;5111910;27;20571;-72
2022/06/14 05:29:22;;;;;;;2.67;1.02;;;11.30;99.90;;;;;;5109607;27;20039;-72
2022/06/14 05:32:06;;;;;;;4.15;1.10;;;11.40;99.90;;;;;;5114403;27;20443;-72
2022/06/14 05:34:49;;;;;;;2.85;0.70;;;11.40;99.90;;;;;;5112229;27;20042;-72
2022/06/14 05:37:26;;;;;;;2.20;1.08;;;11.40;99.90;;;;;;5094041;27;20039;-72
2022/06/14 05:39:57;;;;;;;2.47;1.08;;;11.50;99.90;;;;;;5115711;27;20039;-72
2022/06/14 05:42:27;;;;;;;2.60;0.80;;;11.50;99.90;;;;;;5110238;27;20067;-72
2022/06/14 05:44:58;;;;;;;3.45;0.90;;;11.60;99.90;;;;;;5115256;27;20781;-72
2022/06/14 05:47:36;;;;;;;4.65;0.80;;;11.60;99.90;;;;;;5102656;27;20528;-72
2022/06/14 05:50:06;;;;;;;6.30;1.10;;;11.70;99.90;;;;;;5109673;27;20571;-72
2022/06/14 05:52:56;;;;;;;6.88;1.08;;;11.70;99.90;;;;;;5111229;27;20043;-72
2022/06/14 05:55:33;;;;;;;1.95;0.80;;;11.70;99.90;;;;;;5103409;27;20079;-72
2022/06/14 05:58:08;;;;;;;2.30;1.05;;;11.80;99.90;;;;;;5109847;27;20027;-72
2022/06/14 06:00:46;;;;;;;3.42;0.70;;;11.90;99.90;;;;;;5110927;27;20046;-72
2022/06/14 06:03:23;;;;;;;1.98;0.60;;;11.90;99.90;;;;;;5106513;27;20121;-72
2022/06/14 06:06:11;;;;;;;3.88;0.82;;;12.00;99.90;;;;;;5115180;27;20043;-72
2022/06/14 06:08:45;;;;;;;1.42;0.82;;;12.00;99.90;;;;;;5115602;27;20817;-72
2022/06/14 06:11:17;;;;;;;1.33;0.93;;;12.10;99.90;;;;;;5108285;27;20042;-72
2022/06/14 06:13:54;;;;;;;2.67;0.93;;;12.20;99.90;;;;;;5094206;27;20039;-72
2022/06/14 06:16:26;;;;;;;1.77;0.70;;;12.20;99.90;;;;;;5111369;27;20040;-72
2022/06/14 06:19:19;;;;;;;2.10;1.30;;;12.30;99.90;;;;;;5110606;27;20097;-72
2022/06/14 06:22:13;;;;;;;2.80;1.27;;;12.40;99.90;;;;;;5103349;27;20067;-74
2022/06/14 06:24:50;;;;;;;2.45;0.88;;;12.50;99.90;;;;;;5107615;27;20067;-72
2022/06/14 06:27:21;;;;;;;2.78;1.15;;;12.50;99.90;;;;;;5105806;27;20027;-72
2022/06/14 06:29:55;;;;;;;4.03;1.10;;;12.60;99.90;;;;;;5104464;27;20038;-72
2022/06/14 06:32:22;;;;;;;1.95;0.75;;;12.80;99.90;;;;;;5097355;27;20035;-73
2022/06/14 06:34:49;;;;;;;2.90;0.70;;;13.30;99.90;;;;;;5111623;27;20086;-72
2022/06/14 06:37:27;;;;;;;1.67;0.73;;;14.20;99.90;;;;;;5111279;27;20035;-73
2022/06/14 06:40:00;;;;;;;1.65;0.60;;;15.30;99.90;;;;;;5111330;27;20050;-72
2022/06/14 06:42:41;;;;;;;2.78;1.10;;;16.40;99.90;;;;;;5095962;27;20118;-72
2022/06/14 06:45:18;;;;;;;1.80;1.08;;;17.30;99.60;;;;;;5100691;27;20519;-72
2022/06/14 06:47:52;;;;;;;3.45;0.88;;;18.10;97.90;;;;;;5106939;27;20619;-72
2022/06/14 06:50:17;;;;;;;2.60;0.85;;;18.60;96.00;;;;;;5113485;27;20035;-72
2022/06/14 06:53:12;;;;;;;3.13;1.00;;;18.50;96.60;;;;;;5098108;27;20740;-72
2022/06/14 06:56:00;;;;;;;1.35;0.93;;;17.90;96.40;;;;;;5107004;27;20039;-72
2022/06/14 06:58:38;;;;;;;0.82;0.50;;;17.40;97.70;;;;;;5108203;27;20504;-72
2022/06/14 07:01:15;;;;;;;0.77;0.50;;;16.90;99.90;;;;;;5113363;27;20532;-72
2022/06/14 07:04:11;;;;;;;1.70;0.55;;;16.50;99.90;;;;;;5100767;27;21776;-72
2022/06/14 07:06:44;;;;;;;1.05;0.50;;;16.20;99.90;;;;;;5112642;27;20623;-73
2022/06/14 07:09:25;;;;;;;0.93;0.47;;;15.80;99.90;;;;;;5104864;27;20032;-72
2022/06/14 07:12:04;;;;;;;2.55;0.68;;;15.70;99.90;;;;;;5105694;27;20067;-73
2022/06/14 07:14:39;;;;;;;5.60;0.80;;;15.50;99.90;;;;;;5103860;27;20039;-72
2022/06/14 07:17:16;;;;;;;2.30;0.60;;;15.40;99.90;;;;;;5106193;27;20108;-72
2022/06/14 07:20:11;;;;;;;1.13;0.50;;;15.40;99.90;;;;;;5101675;27;20515;-72
2022/06/14 07:22:58;;;;;;;1.70;0.90;;;15.30;99.90;;;;;;5103510;27;20048;-72
2022/06/14 07:25:32;;;;;;;1.50;0.57;;;15.30;99.90;;;;;;5117254;27;20400;-71
2022/06/14 07:28:07;;;;;;;1.17;0.57;;;15.20;99.90;;;;;;5100583;28;20122;-71
2022/06/14 07:30:45;;;;;;;1.05;0.68;;;15.20;99.90;;;;;;5092254;28;20967;-72
2022/06/14 07:33:11;;;;;;;0.65;0.45;;;15.20;99.90;;;;;;5102389;28;20042;-72
2022/06/14 07:35:54;;;;;;;1.55;0.40;;;15.20;99.90;;;;;;5105874;28;20699;-72
2022/06/14 07:39:07;;;;;;;1.13;0.35;;;15.10;99.90;;;;;;5116003;28;20049;-72
2022/06/14 07:41:57;;;;;;;1.20;0.60;;;15.10;99.90;;;;;;5083753;28;20113;-72
2022/06/14 07:44:34;;;;;;;0.88;0.55;;;15.20;99.90;;;;;;5089772;28;20040;-72
2022/06/14 07:47:17;;;;;;;2.03;0.73;;;15.20;99.90;;;;;;5102378;28;20480;-72
2022/06/14 07:50:07;;;;;;;2.00;0.55;;;15.10;99.90;;;;;;5084104;28;22222;-72
2022/06/14 07:52:42;;;;;;;2.03;0.50;;;15.10;99.90;;;;;;5101156;28;20484;-71
2022/06/14 07:55:15;;;;;;;1.65;0.75;;;15.00;99.90;;;;;;5106954;28;20055;-72
2022/06/14 07:57:45;;;;;;;0.57;0.35;;;14.90;99.90;;;;;;5108215;28;20402;-72
2022/06/14 08:03:25;;;;;;;1.45;0.60;;;15.00;99.90;;;;;;5091572;28;20046;-72
2022/06/14 08:05:53;;;;;;;1.83;0.57;;;15.00;99.90;;;;;;5108683;27;20040;-72
2022/06/14 08:08:23;;;;;;;1.58;0.50;;;15.10;99.90;;;;;;5110581;27;20046;-72
2022/06/14 08:10:55;;;;;;;3.47;0.73;;;15.10;99.90;;;;;;5096716;27;20114;-72
2022/06/14 08:13:27;;;;;;;1.45;0.70;;;15.10;99.90;;;;;;5098675;27;20150;-71
2022/06/14 08:15:57;;;;;;;1.77;0.43;;;15.00;99.90;;;;;;5097748;27;20044;-72
2022/06/14 08:18:44;;;;;;;0.70;0.50;;;15.00;99.90;;;;;;5113819;27;20456;-72
2022/06/14 08:21:31;;;;;;;2.25;0.75;;;15.20;99.90;;;;;;5117879;27;20110;-72
2022/06/14 08:24:03;;;;;;;1.05;0.35;;;15.10;99.90;;;;;;5116024;27;20035;-72
2022/06/14 08:26:42;;;;;;;4.65;0.68;;;15.10;99.90;;;;;;5113693;27;20039;-72
2022/06/14 08:29:23;;;;;;;1.65;0.40;;;15.00;99.80;;;;;;5100199;27;20076;-73
2022/06/14 08:31:54;;;;;;;0.50;0.32;;;15.10;99.90;;;;;;5105231;27;20063;-73
2022/06/14 08:34:23;;;;;;;1.35;0.30;;;15.00;99.80;;;;;;5120813;27;20046;-72
2022/06/14 08:36:56;;;;;;;0.57;0.40;;;15.10;99.80;;;;;;5107284;27;20433;-72
2022/06/14 08:39:41;;;;;;;2.55;0.70;;;15.20;99.10;;;;;;5111617;27;20049;-72
2022/06/14 08:42:30;;;;;;;1.40;0.60;;;15.20;98.50;;;;;;5091198;27;20069;-72
2022/06/14 08:45:03;;;;;;;0.70;0.35;;;15.30;98.30;;;;;;5095089;27;20294;-73
2022/06/14 08:47:47;;;;;;;1.00;0.40;;;15.10;99.10;;;;;;5104294;27;20396;-72
2022/06/14 08:50:46;;;;;;;0.85;0.50;;;15.20;99.90;;;;;;5110720;27;20613;-72
2022/06/14 08:53:31;;;;;;;3.13;0.70;;;15.40;98.80;;;;;;5119214;27;20037;-72
2022/06/14 08:56:14;;;;;;;0.68;0.22;;;15.50;98.10;;;;;;5114032;27;20040;-72
2022/06/14 08:58:52;;;;;;;2.92;0.70;;;15.60;98.40;;;;;;5113400;27;20473;-72
2022/06/14 09:01:38;;;;;;;5.43;0.90;;;15.60;96.70;;;;;;5094874;27;20138;-72
2022/06/14 09:04:29;;;;;;;0.80;0.35;;;15.70;97.70;;;;;;5099529;27;20107;-72
2022/06/14 09:07:16;;;;;;;0.70;0.40;;;15.60;97.40;;;;;;5114123;27;20028;-72
2022/06/14 09:10:11;;;;;;;3.13;0.60;;;15.50;97.20;;;;;;5117886;27;20040;-72
2022/06/14 09:13:02;;;;;;;0.95;0.47;;;15.50;97.40;;;;;;5100130;27;20317;-72
2022/06/14 09:15:52;;;;;;;1.38;0.50;;;15.60;97.60;;;;;;5112392;27;20508;-72
2022/06/14 09:18:45;;;;;;;1.85;0.50;;;15.60;96.60;;;;;;5112648;27;20066;-72
2022/06/14 09:21:44;;;;;;;1.52;0.77;;;15.70;97.00;;;;;;5114361;27;20047;-72
2022/06/14 09:24:18;;;;;;;2.47;0.60;;;15.80;95.60;;;;;;5112778;27;20099;-72
2022/06/14 09:27:13;;;;;;;2.78;0.70;;;15.90;96.80;;;;;;5106972;27;20577;-73
2022/06/14 09:30:00;;;;;;;1.05;0.50;;;16.00;95.60;;;;;;5108904;27;20131;-73
2022/06/14 09:33:11;;;;;;;0.57;0.40;;;16.10;94.80;;;;;;5098578;27;20081;-73
2022/06/14 09:36:11;;;;;;;0.30;0.22;;;16.10;94.00;;;;;;5103342;27;20528;-73
2022/06/14 09:38:55;;;;;;;2.33;0.50;;;16.10;93.40;;;;;;5111192;27;20040;-73
2022/06/14 09:41:46;;;;;;;3.75;0.68;;;16.00;95.10;;;;;;5087254;27;20208;-73
2022/06/14 09:44:14;;;;;;;1.65;0.68;;;16.00;94.30;;;;;;5106713;27;20465;-73
2022/06/14 09:46:58;;;;;;;0.70;0.40;;;16.10;96.50;;;;;;5112463;27;20708;-73
2022/06/14 09:50:05;;;;;;;1.15;0.50;;;16.20;95.90;;;;;;5103895;27;20031;-74
2022/06/14 09:52:39;;;;;;;;;;;16.40;96.60;;;;;;5046941;28;20051;-73
2022/06/14 09:55:31;;;;;;;1.58;0.50;;;16.60;94.10;;;;;;5041796;28;19923;-73
2022/06/14 09:58:30;;;;;;;1.33;0.47;;;16.70;95.50;;;;;;5068274;27;20051;-74
2022/06/14 10:01:15;;;;;;;0.40;0.25;;;16.80;96.20;;;;;;5109942;27;20048;-74
2022/06/14 10:04:06;;;;;;;0.82;0.30;;;17.00;96.10;;;;;;5110830;27;20047;-74
2022/06/14 10:06:59;;;;;;;1.83;0.60;;;17.00;93.90;;;;;;5097310;27;20039;-73
2022/06/14 10:09:48;;;;;;;1.35;0.38;;;16.90;94.10;;;;;;5100501;27;20035;-73
2022/06/14 10:12:38;;;;;;;3.95;0.70;;;16.90;94.10;;;;;;5092450;28;20040;-72
2022/06/14 10:15:20;;;;;;;0.88;0.45;;;16.80;93.40;;;;;;5075722;28;20043;-73
2022/06/14 10:18:01;;;;;;;2.55;0.30;;;16.70;93.80;;;;;;5108644;28;20048;-72
2022/06/14 10:21:13;;;;;;;2.85;0.50;;;16.70;93.60;;;;;;5103375;28;20035;-73
2022/06/14 10:24:16;;;;;;;1.40;0.60;;;16.50;94.40;;;;;;5061242;28;20518;-73
2022/06/14 10:30:02;;;;;;;1.75;0.85;;;16.40;95.20;;;;;;5127649;27;20074;-72
2022/06/14 10:33:00;;;;;;;2.50;0.88;;;16.40;95.80;;;;;;5100865;27;20503;-72
2022/06/14 10:36:02;;;;;;;1.35;0.60;;;16.50;94.60;;;;;;5102202;28;20564;-73
2022/06/14 10:38:50;;;;;;;1.98;0.50;;;16.50;95.40;;;;;;5103257;27;20043;-73
2022/06/14 10:41:35;;;;;;;0.30;0.28;;;16.60;96.70;;;;;;5088597;28;20401;-73
2022/06/14 10:44:13;;;;;;;0.82;0.43;;;16.70;96.30;;;;;;5088674;27;20047;-74
2022/06/14 10:47:06;;;;;;;0.60;0.40;;;16.90;96.00;;;;;;5112219;27;20563;-73
2022/06/14 10:49:58;;;;;;;0.60;0.40;;;17.10;94.30;;;;;;5110411;27;20407;-73
2022/06/14 10:52:41;;;;;;;1.08;0.47;;;17.20;92.90;;;;;;5116516;27;20027;-74
2022/06/14 10:55:37;;;;;;;1.30;0.30;;;17.40;93.20;;;;;;5095614;27;20580;-73
2022/06/14 10:58:33;;;;;;;0.68;0.40;;;17.40;92.50;;;;;;5094347;27;20039;-73
2022/06/14 11:01:49;;;;;;;0.38;0.20;;;17.50;92.10;;;;;;5102179;27;20051;-73
2022/06/14 11:04:45;;;;;;;0.95;0.40;;;17.50;92.30;;;;;;5092025;28;20121;-73
2022/06/14 11:07:34;;;;;;;;;;;17.60;93.20;;;;;;5093304;28;20497;-73
2022/06/14 11:10:31;;;;;;;1.42;0.40;;;17.50;88.10;;;;;;5096005;27;19920;-73
2022/06/14 11:13:34;;;;;;;0.70;0.35;;;17.50;91.30;;;;;;5104123;27;20036;-73
2022/06/14 11:16:07;;;;;;;3.28;0.60;;;17.40;90.40;;;;;;5091239;28;20043;-73
2022/06/14 11:19:23;;;;;;;1.02;0.47;;;17.40;92.40;;;;;;5094424;27;20058;-73
2022/06/14 11:21:55;;;;;;;0.98;0.40;;;17.40;91.40;;;;;;5119328;27;20081;-73
2022/06/14 11:24:34;;;;;;;1.10;0.60;;;17.40;93.50;;;;;;5108972;27;20050;-73
2022/06/14 11:27:13;;;;;;;1.27;0.40;;;17.40;94.50;;;;;;5089568;28;20127;-73
2022/06/14 11:30:00;;;;;;;1.15;0.50;;;17.50;93.80;;;;;;5079334;28;20039;-73
2022/06/14 11:32:29;;;;;;;1.27;0.60;;;17.60;93.40;;;;;;5115482;28;20039;-73
2022/06/14 11:35:13;;;;;;;1.33;0.60;;;17.60;94.10;;;;;;5109994;28;20047;-74
2022/06/14 11:38:04;;;;;;;1.83;0.50;;;17.70;94.10;;;;;;5117994;28;20047;-73
2022/06/14 11:40:32;;;;;;;1.92;0.57;;;17.80;93.10;;;;;;5110857;27;20067;-74
2022/06/14 11:43:23;;;;;;;0.38;0.30;;;17.90;94.10;;;;;;5110153;28;20051;-73
2022/06/14 11:46:16;;;;;;;0.93;0.40;;;18.00;93.60;;;;;;5116795;27;20046;-73
2022/06/14 11:48:45;;;;;;;2.60;0.45;;;18.00;92.40;;;;;;5103711;27;20055;-73
2022/06/14 11:51:25;;;;;;;1.15;0.28;;;17.90;92.90;;;;;;5106957;27;20047;-73
2022/06/14 11:54:24;;;;;;;5.50;0.70;;;17.90;93.20;;;;;;5100800;28;20068;-73
2022/06/14 11:56:54;;;;;;;5.72;1.05;;;18.00;90.70;;;;;;5112400;27;20043;-73
2022/06/14 11:59:49;;;;;;;0.30;0.28;;;18.00;92.80;;;;;;5100984;27;20039;-73
2022/06/14 12:02:36;;;;;;;0.43;0.20;;;18.10;90.90;;;;;;5097324;27;20027;-73
2022/06/14 12:05:22;;;;;;;0.63;0.30;;;18.20;91.40;;;;;;5089791;28;20442;-73
2022/06/14 12:08:11;;;;;;;3.35;0.45;;;18.30;91.80;;;;;;5106013;27;20075;-73
2022/06/14 12:11:00;;;;;;;3.15;0.40;;;18.40;92.20;;;;;;5111957;27;20036;-74
2022/06/14 12:13:41;;;;;;;1.52;0.57;;;18.50;91.30;;;;;;5090365;28;20105;-73
2022/06/14 12:16:15;;;;;;;0.75;0.40;;;18.50;92.00;;;;;;5111199;27;20635;-74
2022/06/14 12:18:49;;;;;;;0.90;0.43;;;18.60;91.60;;;;;;5131057;27;20051;-73
2022/06/14 12:21:35;;;;;;;2.00;0.47;;;18.70;91.90;;;;;;5088313;27;20032;-73
2022/06/14 12:24:06;;;;;;;0.75;0.40;;;18.70;89.30;;;;;;5113711;27;20051;-73
2022/06/14 12:27:01;;;;;;;1.40;0.47;;;18.60;90.20;;;;;;5096373;27;20112;-73
2022/06/14 12:29:35;;;;;;;0.98;0.38;;;18.60;88.80;;;;;;5112532;27;20050;-74
2022/06/14 12:32:26;;;;;;;0.38;0.20;;;18.50;90.30;;;;;;5099529;27;20506;-76
2022/06/14 12:35:00;;;;;;;2.28;0.30;;;18.60;89.40;;;;;;5092590;27;20047;-74
2022/06/14 12:37:38;;;;;;;0.60;0.30;;;18.60;90.60;;;;;;5112668;27;20036;-74
2022/06/14 12:40:37;;;;;;;0.88;0.30;;;18.60;90.60;;;;;;5100449;28;20081;-74
2022/06/14 12:43:23;;;;;;;0.40;0.30;;;18.50;90.00;;;;;;5110841;27;20130;-74
2022/06/14 12:46:01;;;;;;;0.82;0.30;;;18.40;88.00;;;;;;5100605;27;20043;-74
2022/06/14 12:48:42;;;;;;;1.33;0.43;;;18.40;90.00;;;;;;5112730;27;20034;-74
2022/06/14 12:51:28;;;;;;;0.80;0.28;;;18.30;89.10;;;;;;5095416;27;20101;-74
2022/06/14 12:54:14;;;;;;;1.13;0.15;;;18.20;90.70;;;;;;5119846;27;21320;-74
2022/06/14 12:56:48;;;;;;;3.00;0.47;;;18.20;90.30;;;;;;5108851;27;20044;-74
2022/06/14 12:59:44;;;;;;;1.42;0.30;;;18.10;91.00;;;;;;5089474;27;20053;-74
2022/06/14 13:02:33;;;;;;;0.40;0.30;;;18.20;90.00;;;;;;5106975;27;20035;-74
2022/06/14 13:05:04;;;;;;;5.22;0.95;;;18.20;89.20;;;;;;5101752;27;20035;-74
2022/06/14 13:07:38;;;;;;;2.35;0.60;;;18.20;91.20;;;;;;5108831;27;20448;-74
2022/06/14 13:10:07;;;;;;;0.50;0.22;;;18.20;91.20;;;;;;5115256;27;20125;-74
2022/06/14 13:13:01;;;;;;;0.40;0.35;;;18.30;91.60;;;;;;5112285;27;20050;-74
2022/06/14 13:16:04;;;;;;;1.42;0.25;;;18.40;90.90;;;;;;5110581;27;20438;-74
2022/06/14 13:18:48;;;;;;;1.13;0.40;;;18.50;90.00;;;;;;5077415;27;20077;-73
2022/06/14 13:21:50;;;;;;;1.15;0.30;;;18.50;91.30;;;;;;5092588;27;20047;-73
2022/06/14 13:24:37;;;;;;;0.25;0.13;;;18.50;91.70;;;;;;5115742;27;20445;-74
2022/06/14 13:27:24;;;;;;;1.05;0.40;;;18.60;91.30;;;;;;5109778;27;20054;-74
2022/06/14 13:30:04;;;;;;;4.72;0.47;;;18.50;91.10;;;;;;5113444;27;20032;-74
2022/06/14 13:32:42;;;;;;;1.33;0.30;;;18.50;87.30;;;;;;5113308;27;20205;-74
2022/06/14 13:35:23;;;;;;;0.50;0.28;;;18.40;89.10;;;;;;5091109;27;20058;-74
2022/06/14 13:38:33;;;;;;;1.65;0.43;;;18.40;89.60;;;;;;5094508;27;20036;-74
2022/06/14 13:41:18;;;;;;;1.05;0.35;;;18.40;83.10;;;;;;5106891;27;20516;-73
2022/06/14 13:44:06;;;;;;;1.20;0.40;;;18.40;85.30;;;;;;5116668;27;20039;-74
2022/06/14 13:46:35;;;;;;;0.95;0.50;;;18.40;83.50;;;;;;5106751;27;20039;-74
2022/06/14 13:49:01;;;;;;;1.05;0.47;;;18.40;89.10;;;;;;5102128;27;20047;-74
2022/06/14 13:51:30;;;;;;;1.25;0.40;;;18.40;88.50;;;;;;5112571;27;20035;-72
2022/06/14 13:53:58;;;;;;;0.60;0.30;;;18.40;85.60;;;;;;5118828;27;20126;-73
2022/06/14 13:56:35;;;;;;;0.45;0.25;;;18.50;87.80;;;;;;5102161;27;20043;-73
2022/06/14 13:59:13;;;;;;;0.40;0.20;;;18.40;85.00;;;;;;5107945;27;20493;-73
2022/06/14 14:02:07;;;;;;;1.30;0.28;;;18.50;82.90;;;;;;5116724;27;20053;-74
2022/06/14 14:05:02;;;;;;;0.95;0.30;;;18.50;82.80;;;;;;5106427;27;20139;-73